Time;durP1;ratioP1;P1;durP2;ratioP2;P2;SDS_P1;SDS_P2;PMS_P1;PMS_P2;Temp;Humidity;BMP_temperature;BMP_pressure;BME280_temperature;BME280_humidity;BME280_pressure;Samples;Min_cycle;Max_cycle;Signal;HPM_P1;HPM_P2
2023/03/13 00:00:18;;;;;;;1.60;0.50;;;13.20;1.00;;;;;;5011409;28;20759;-71
2023/03/13 00:02:46;;;;;;;3.28;1.08;;;13.30;1.00;;;;;;5027691;28;20394;-71
2023/03/13 00:05:12;;;;;;;1.40;0.73;;;13.30;1.00;;;;;;5029719;28;20407;-72
2023/03/13 00:07:38;;;;;;;3.05;0.70;;;13.30;1.00;;;;;;5010544;28;20956;-71
2023/03/13 00:10:05;;;;;;;1.35;0.70;;;13.40;1.00;;;;;;5012963;28;20408;-71
2023/03/13 00:12:31;;;;;;;3.22;0.80;;;13.40;1.00;;;;;;5011102;28;20416;-71
2023/03/13 00:14:56;;;;;;;4.93;0.90;;;13.40;1.00;;;;;;5019025;28;20427;-72
2023/03/13 00:17:22;;;;;;;3.20;0.80;;;13.50;1.00;;;;;;5030127;28;20419;-71
2023/03/13 00:19:49;;;;;;;1.48;0.70;;;13.40;1.00;;;;;;5030631;28;20391;-71
2023/03/13 00:22:14;;;;;;;2.03;0.83;;;13.50;1.00;;;;;;5030635;28;21089;-71
2023/03/13 00:24:40;;;;;;;3.50;0.80;;;13.50;1.00;;;;;;5030624;28;20398;-70
2023/03/13 00:27:05;;;;;;;2.90;1.00;;;13.50;1.00;;;;;;5030139;28;20426;-71
2023/03/13 00:29:32;;;;;;;3.13;0.73;;;13.50;1.00;;;;;;5029180;28;20470;-71
2023/03/13 00:31:58;;;;;;;1.35;0.60;;;13.40;1.00;;;;;;5019655;28;20400;-72
2023/03/13 00:34:26;;;;;;;3.22;0.80;;;13.40;1.00;;;;;;5010633;28;20381;-71
2023/03/13 00:36:52;;;;;;;1.50;0.90;;;13.40;1.00;;;;;;5010263;28;20438;-71
2023/03/13 00:39:17;;;;;;;2.08;0.80;;;13.50;1.00;;;;;;5010768;28;20857;-70
2023/03/13 00:41:43;;;;;;;1.40;0.70;;;13.40;1.00;;;;;;5010829;28;20754;-71
2023/03/13 00:44:09;;;;;;;1.83;0.67;;;13.50;1.00;;;;;;5010827;28;20397;-71
2023/03/13 00:46:35;;;;;;;2.00;0.70;;;13.50;1.00;;;;;;5010374;28;20494;-71
2023/03/13 00:49:01;;;;;;;1.00;0.50;;;13.60;1.00;;;;;;5010466;28;20806;-70
2023/03/13 00:51:27;;;;;;;3.20;0.80;;;13.60;1.00;;;;;;5010647;28;20393;-71
2023/03/13 00:53:59;;;;;;;1.40;0.60;;;13.60;1.00;;;;;;5010418;28;20385;-71
2023/03/13 00:56:25;;;;;;;1.27;0.80;;;13.50;1.00;;;;;;5010077;28;20397;-73
2023/03/13 00:58:51;;;;;;;1.60;0.57;;;13.60;1.00;;;;;;5012782;28;20785;-70
2023/03/13 01:01:25;;;;;;;1.30;0.70;;;13.60;1.00;;;;;;5013067;28;20488;-71
2023/03/13 01:03:53;;;;;;;1.50;0.60;;;13.70;1.00;;;;;;5010333;28;20471;-70
2023/03/13 01:06:22;;;;;;;2.45;0.60;;;13.60;1.00;;;;;;5009861;28;20507;-70
2023/03/13 01:08:48;;;;;;;1.90;0.70;;;13.70;1.00;;;;;;5010325;28;20408;-70
2023/03/13 01:11:20;;;;;;;1.33;0.73;;;13.90;1.00;;;;;;5010519;28;20408;-71
2023/03/13 01:13:46;;;;;;;1.88;0.80;;;13.80;1.00;;;;;;5023980;28;20401;-71
2023/03/13 01:16:18;;;;;;;2.00;0.60;;;13.80;1.00;;;;;;5029944;28;20383;-71
2023/03/13 01:18:46;;;;;;;2.20;0.90;;;13.90;1.00;;;;;;5021981;28;20749;-71
2023/03/13 01:21:13;;;;;;;1.00;0.70;;;13.90;1.00;;;;;;5010443;28;20412;-71
2023/03/13 01:23:39;;;;;;;1.02;0.70;;;13.90;99.90;;;;;;5010131;28;20400;-71
2023/03/13 01:26:06;;;;;;;1.52;0.60;;;13.90;1.00;;;;;;5008589;28;20404;-71
2023/03/13 01:28:32;;;;;;;1.58;0.70;;;13.80;1.00;;;;;;5010069;28;20438;-71
2023/03/13 01:30:59;;;;;;;1.63;0.93;;;13.60;99.90;;;;;;5010269;28;20927;-71
2023/03/13 01:33:25;;;;;;;1.80;0.60;;;13.50;1.00;;;;;;5008970;28;20446;-72
2023/03/13 01:35:50;;;;;;;2.00;0.70;;;13.30;99.90;;;;;;5009806;28;20455;-72
2023/03/13 01:38:16;;;;;;;2.33;0.90;;;13.20;1.00;;;;;;5010139;28;20397;-72
2023/03/13 01:40:44;;;;;;;1.60;0.90;;;13.10;1.00;;;;;;5008325;28;21006;-70
2023/03/13 01:43:19;;;;;;;2.13;0.85;;;12.90;1.00;;;;;;5009931;28;20800;-71
2023/03/13 01:45:56;;;;;;;2.00;0.80;;;12.80;1.00;;;;;;5009844;28;20456;-71
2023/03/13 01:48:34;;;;;;;1.00;0.70;;;12.70;99.90;;;;;;5009641;28;20462;-71
2023/03/13 01:51:01;;;;;;;1.45;1.05;;;12.70;99.90;;;;;;5016895;28;20892;-71
2023/03/13 01:53:30;;;;;;;1.60;0.63;;;12.60;92.50;;;;;;5029804;28;20450;-71
2023/03/13 01:55:56;;;;;;;1.17;0.63;;;12.60;1.00;;;;;;5029536;28;20402;-71
2023/03/13 01:58:22;;;;;;;2.03;0.80;;;12.60;1.00;;;;;;5012564;28;20408;-71
2023/03/13 02:00:48;;;;;;;0.73;0.60;;;12.80;1.00;;;;;;5010091;28;20388;-72
2023/03/13 02:03:17;;;;;;;1.60;0.90;;;12.70;1.00;;;;;;5022859;28;20481;-71
2023/03/13 02:05:44;;;;;;;2.30;0.80;;;12.80;94.00;;;;;;5009717;28;20844;-71
2023/03/13 02:08:17;;;;;;;3.15;0.77;;;12.80;99.90;;;;;;5009591;28;20408;-71
2023/03/13 02:10:50;;;;;;;2.33;0.73;;;13.00;99.90;;;;;;5009829;28;20393;-70
2023/03/13 02:13:17;;;;;;;1.90;0.90;;;13.10;99.90;;;;;;5008249;28;20407;-71
2023/03/13 02:15:44;;;;;;;1.87;0.50;;;13.10;99.90;;;;;;5011683;28;20408;-70
2023/03/13 02:18:10;;;;;;;1.27;0.90;;;13.10;1.00;;;;;;5009759;28;20403;-70
2023/03/13 02:20:38;;;;;;;1.65;0.68;;;13.20;1.00;;;;;;5009758;28;20425;-71
2023/03/13 02:23:30;;;;;;;1.58;0.88;;;13.20;1.00;;;;;;5007058;28;20812;-71
2023/03/13 02:25:55;;;;;;;2.20;0.70;;;13.10;1.00;;;;;;5012428;28;20447;-71
2023/03/13 02:28:27;;;;;;;1.53;0.70;;;13.10;99.90;;;;;;5013817;28;20883;-71
2023/03/13 02:30:55;;;;;;;1.90;0.80;;;13.10;99.90;;;;;;5009060;28;20385;-72
2023/03/13 02:33:25;;;;;;;2.53;0.90;;;13.30;1.00;;;;;;5012963;28;20989;-71
2023/03/13 02:35:51;;;;;;;1.00;0.60;;;13.30;1.00;;;;;;5012521;28;20400;-73
2023/03/13 02:38:22;;;;;;;0.77;0.60;;;13.20;30.00;;;;;;5012901;28;20481;-71
2023/03/13 02:40:51;;;;;;;2.17;0.80;;;13.20;1.00;;;;;;5013170;28;20424;-70
2023/03/13 02:43:31;;;;;;;1.38;0.60;;;13.30;1.00;;;;;;5013448;28;20462;-71
2023/03/13 02:46:11;;;;;;;2.40;0.70;;;13.30;1.00;;;;;;5012487;28;20752;-71
2023/03/13 02:48:40;;;;;;;2.00;0.70;;;13.20;1.00;;;;;;5012757;28;20748;-71
2023/03/13 02:51:18;;;;;;;0.73;0.60;;;13.30;99.90;;;;;;5012751;28;20377;-71
2023/03/13 02:53:45;;;;;;;1.33;0.70;;;13.40;99.90;;;;;;5020149;28;20395;-71
2023/03/13 02:56:13;;;;;;;1.40;0.60;;;13.40;99.90;;;;;;5029187;28;20403;-71
2023/03/13 02:58:41;;;;;;;1.60;0.60;;;13.30;1.00;;;;;;5012913;28;20393;-72
2023/03/13 03:01:06;;;;;;;1.00;0.60;;;13.30;99.90;;;;;;5012430;28;20381;-71
2023/03/13 03:03:36;;;;;;;0.80;0.43;;;13.30;1.00;;;;;;5012606;28;20470;-71
2023/03/13 03:06:03;;;;;;;0.98;0.68;;;13.30;1.00;;;;;;5012034;28;20404;-71
2023/03/13 03:08:28;;;;;;;1.60;0.50;;;13.30;1.00;;;;;;5017938;28;20392;-71
2023/03/13 03:10:54;;;;;;;1.70;0.67;;;13.30;99.90;;;;;;5029008;28;20449;-71
2023/03/13 03:13:20;;;;;;;1.70;0.70;;;13.30;99.90;;;;;;5018021;28;20487;-72
2023/03/13 03:15:45;;;;;;;0.93;0.53;;;13.20;99.90;;;;;;5011805;28;20389;-72
2023/03/13 03:18:11;;;;;;;1.20;0.60;;;13.20;1.00;;;;;;5012168;28;20395;-71
2023/03/13 03:20:36;;;;;;;1.80;0.60;;;13.10;1.00;;;;;;5012377;28;20389;-71
2023/03/13 03:23:02;;;;;;;1.00;0.60;;;13.10;99.90;;;;;;5012131;28;20871;-72
2023/03/13 03:25:27;;;;;;;1.00;0.52;;;13.00;1.00;;;;;;5024197;28;20415;-73
2023/03/13 03:27:53;;;;;;;1.90;1.00;;;13.00;1.00;;;;;;5031742;28;20383;-71
2023/03/13 03:30:18;;;;;;;2.10;0.50;;;13.00;1.00;;;;;;5031561;28;20437;-71
2023/03/13 03:32:44;;;;;;;1.40;0.52;;;12.90;99.90;;;;;;5012429;28;20762;-72
2023/03/13 03:35:10;;;;;;;1.40;0.50;;;12.90;99.90;;;;;;5011752;28;20396;-71
2023/03/13 03:37:35;;;;;;;1.30;0.70;;;12.90;99.90;;;;;;5010757;28;20401;-71
2023/03/13 03:40:01;;;;;;;0.70;0.50;;;12.80;99.90;;;;;;5009546;28;20404;-72
2023/03/13 03:42:26;;;;;;;4.03;0.70;;;12.80;99.90;;;;;;5011674;28;20484;-71
2023/03/13 03:44:52;;;;;;;1.42;0.75;;;12.70;99.90;;;;;;5011747;28;20547;-71
2023/03/13 03:47:17;;;;;;;2.20;0.50;;;12.70;99.90;;;;;;5011328;28;20467;-71
2023/03/13 03:49:43;;;;;;;0.63;0.50;;;12.70;1.00;;;;;;5011794;28;20878;-72
2023/03/13 03:52:08;;;;;;;2.83;0.60;;;12.50;1.00;;;;;;5011723;28;20464;-72
2023/03/13 03:54:34;;;;;;;1.00;0.50;;;12.20;86.90;;;;;;5011708;28;20409;-73
2023/03/13 03:56:59;;;;;;;1.60;0.50;;;11.90;99.90;;;;;;5011139;28;20425;-72
2023/03/13 03:59:25;;;;;;;1.03;0.70;;;11.80;99.90;;;;;;5025783;28;20423;-71
2023/03/13 04:01:50;;;;;;;1.00;0.50;;;11.70;99.90;;;;;;5011596;28;20468;-71
2023/03/13 04:04:16;;;;;;;1.70;0.60;;;11.70;99.90;;;;;;5011410;28;20393;-71
2023/03/13 04:06:41;;;;;;;1.38;0.70;;;11.60;99.90;;;;;;5010884;28;20404;-71
2023/03/13 04:09:07;;;;;;;1.00;0.60;;;11.80;99.90;;;;;;5011164;28;20403;-71
2023/03/13 04:11:32;;;;;;;0.87;0.77;;;11.60;99.90;;;;;;5014363;28;20457;-72
2023/03/13 04:13:58;;;;;;;1.30;0.80;;;11.70;99.90;;;;;;5030984;28;20444;-71
2023/03/13 04:16:23;;;;;;;1.00;0.80;;;11.80;99.90;;;;;;5030489;28;20393;-71
2023/03/13 04:18:49;;;;;;;0.60;0.50;;;12.00;1.00;;;;;;5030709;28;20391;-71
2023/03/13 04:21:14;;;;;;;1.23;0.50;;;12.10;1.00;;;;;;5030788;28;20869;-72
2023/03/13 04:23:40;;;;;;;0.63;0.40;;;12.30;1.00;;;;;;5031095;28;20490;-70
2023/03/13 04:26:05;;;;;;;0.80;0.40;;;12.40;1.00;;;;;;5015806;28;20409;-69
2023/03/13 04:28:31;;;;;;;0.70;0.40;;;12.60;1.00;;;;;;5010979;28;20838;-71
2023/03/13 04:30:57;;;;;;;0.80;0.40;;;12.60;1.00;;;;;;5011269;28;20377;-70
2023/03/13 04:33:23;;;;;;;1.10;0.50;;;12.60;1.00;;;;;;5011457;28;20492;-71
2023/03/13 04:35:49;;;;;;;1.02;0.60;;;12.60;1.00;;;;;;5011053;28;20487;-72
2023/03/13 04:38:14;;;;;;;1.37;0.50;;;12.60;1.00;;;;;;5013000;28;20480;-71
2023/03/13 04:40:42;;;;;;;1.10;0.50;;;12.70;1.00;;;;;;5030917;28;20485;-71
2023/03/13 04:43:07;;;;;;;0.80;0.60;;;12.70;1.00;;;;;;5013262;28;20404;-71
2023/03/13 04:45:33;;;;;;;1.30;0.70;;;12.60;1.00;;;;;;5010681;28;21046;-71
2023/03/13 04:47:59;;;;;;;1.57;0.50;;;12.70;99.90;;;;;;5011002;28;20384;-71
2023/03/13 04:50:24;;;;;;;0.90;0.40;;;12.80;99.90;;;;;;5011217;28;20381;-71
2023/03/13 04:52:50;;;;;;;0.80;0.50;;;12.80;99.90;;;;;;5011078;28;20898;-71
2023/03/13 04:55:15;;;;;;;1.00;0.50;;;12.70;1.00;;;;;;5014273;28;20403;-74
2023/03/13 04:57:41;;;;;;;0.67;0.50;;;12.60;1.00;;;;;;5018984;28;20409;-74
2023/03/13 05:00:07;;;;;;;1.40;0.40;;;12.60;1.00;;;;;;5010769;28;20479;-74
2023/03/13 05:02:33;;;;;;;2.72;0.70;;;12.50;1.00;;;;;;5011109;28;20404;-74
2023/03/13 05:04:58;;;;;;;2.60;0.60;;;12.30;99.90;;;;;;5010811;28;20467;-75
2023/03/13 05:07:24;;;;;;;1.10;0.60;;;12.00;99.90;;;;;;5010414;28;20451;-76
2023/03/13 05:09:49;;;;;;;2.10;0.60;;;11.80;99.90;;;;;;5010969;28;20879;-77
2023/03/13 05:12:15;;;;;;;1.10;0.40;;;11.80;99.90;;;;;;5042406;28;20409;-76
2023/03/13 05:14:40;;;;;;;1.38;0.50;;;11.80;99.90;;;;;;5023304;28;20449;-77
2023/03/13 05:17:06;;;;;;;1.37;0.70;;;11.90;99.90;;;;;;5030119;28;20387;-76
2023/03/13 05:19:31;;;;;;;1.50;0.53;;;11.90;99.90;;;;;;5029240;28;20839;-75
2023/03/13 05:21:57;;;;;;;1.40;0.50;;;11.90;99.90;;;;;;5030462;28;20466;-75
2023/03/13 05:24:22;;;;;;;0.80;0.50;;;11.80;99.90;;;;;;5030444;28;20741;-75
2023/03/13 05:26:48;;;;;;;0.80;0.50;;;13.80;99.90;;;;;;5026930;28;20413;-75
2023/03/13 05:29:13;;;;;;;2.90;0.60;;;11.80;99.90;;;;;;5010722;28;20389;-75
2023/03/13 05:31:39;;;;;;;1.10;0.60;;;11.80;99.90;;;;;;5011022;28;20401;-75
2023/03/13 05:34:05;;;;;;;1.00;0.60;;;11.80;99.90;;;;;;5042486;28;20913;-75
2023/03/13 05:36:30;;;;;;;1.65;0.80;;;11.90;99.90;;;;;;5010330;28;20778;-75
2023/03/13 05:38:56;;;;;;;2.03;0.50;;;11.90;99.90;;;;;;5010659;28;20393;-73
2023/03/13 05:41:21;;;;;;;0.50;0.40;;;12.00;99.90;;;;;;5036834;28;20396;-73
2023/03/13 05:43:47;;;;;;;1.60;0.60;;;12.20;1.00;;;;;;5012363;28;20404;-73
2023/03/13 05:46:13;;;;;;;1.50;0.40;;;12.20;1.00;;;;;;5029788;28;20407;-72
2023/03/13 05:48:38;;;;;;;0.90;0.60;;;12.20;1.00;;;;;;5030271;28;20429;-72
2023/03/13 05:51:04;;;;;;;0.90;0.50;;;12.30;1.00;;;;;;5010390;28;20381;-72
2023/03/13 05:53:30;;;;;;;1.60;0.60;;;12.30;1.00;;;;;;5010586;28;20485;-73
2023/03/13 05:55:55;;;;;;;0.73;0.50;;;12.40;1.00;;;;;;5010095;28;20417;-72
2023/03/13 05:58:21;;;;;;;0.53;0.40;;;12.50;1.00;;;;;;5024038;28;20425;-72
2023/03/13 06:00:47;;;;;;;1.90;0.60;;;12.60;1.00;;;;;;5011520;28;20394;-71
2023/03/13 06:03:13;;;;;;;1.50;0.50;;;12.60;1.00;;;;;;5013475;28;20471;-71
2023/03/13 06:05:38;;;;;;;1.30;0.50;;;12.70;1.00;;;;;;5013696;28;20492;-72
2023/03/13 06:08:04;;;;;;;0.80;0.40;;;12.70;1.00;;;;;;5013938;28;20439;-72
2023/03/13 06:10:30;;;;;;;0.77;0.50;;;12.80;1.00;;;;;;5014094;28;20400;-73
2023/03/13 06:12:56;;;;;;;0.63;0.40;;;12.80;1.00;;;;;;5012547;28;20399;-73
2023/03/13 06:15:22;;;;;;;1.88;0.50;;;12.80;1.00;;;;;;5013780;28;20392;-74
2023/03/13 06:17:48;;;;;;;0.82;0.50;;;12.90;1.00;;;;;;5013515;28;20399;-72
2023/03/13 06:20:14;;;;;;;0.80;0.40;;;12.80;1.00;;;;;;5013938;28;20384;-73
2023/03/13 06:22:40;;;;;;;0.90;0.43;;;12.90;1.00;;;;;;5014605;28;20397;-72
2023/03/13 06:25:06;;;;;;;1.45;0.45;;;12.90;1.00;;;;;;5013341;28;20389;-71
2023/03/13 06:27:31;;;;;;;1.23;0.50;;;13.00;1.00;;;;;;5013306;28;20381;-72
2023/03/13 06:29:57;;;;;;;1.02;0.50;;;13.10;1.00;;;;;;5013585;28;20915;-73
2023/03/13 06:32:22;;;;;;;1.80;0.60;;;13.10;1.00;;;;;;5013458;28;20879;-72
2023/03/13 06:34:48;;;;;;;2.00;0.90;;;13.10;1.00;;;;;;5013423;28;20377;-72
2023/03/13 06:37:13;;;;;;;0.90;0.60;;;13.00;1.00;;;;;;5020504;28;20496;-72
2023/03/13 06:39:39;;;;;;;0.60;0.50;;;13.10;1.00;;;;;;5033087;28;20395;-71
2023/03/13 06:42:05;;;;;;;1.60;0.50;;;13.10;1.00;;;;;;5033106;28;20457;-72
2023/03/13 06:44:30;;;;;;;2.05;0.80;;;13.10;1.00;;;;;;5014370;28;20471;-72
2023/03/13 06:46:56;;;;;;;1.20;0.60;;;13.20;1.00;;;;;;5012962;28;20835;-71
2023/03/13 06:49:21;;;;;;;0.50;0.40;;;13.30;1.00;;;;;;5013430;28;20787;-71
2023/03/13 06:51:47;;;;;;;1.70;0.50;;;13.30;1.00;;;;;;5013445;28;20380;-72
2023/03/13 06:54:13;;;;;;;0.60;0.50;;;13.40;1.00;;;;;;5013342;28;20452;-72
2023/03/13 06:56:38;;;;;;;0.90;0.50;;;13.50;1.00;;;;;;5015713;28;20400;-72
2023/03/13 06:59:04;;;;;;;1.10;0.50;;;13.50;1.00;;;;;;5013275;28;20403;-72
2023/03/13 07:01:29;;;;;;;0.90;0.50;;;13.60;1.00;;;;;;5013708;28;20728;-71
2023/03/13 07:03:55;;;;;;;1.30;0.33;;;13.60;1.00;;;;;;5033002;28;20395;-71
2023/03/13 07:06:20;;;;;;;0.60;0.40;;;13.60;1.00;;;;;;5032525;28;21110;-72
2023/03/13 07:08:46;;;;;;;0.50;0.40;;;13.60;1.00;;;;;;5032504;28;20498;-71
2023/03/13 07:11:13;;;;;;;0.90;0.60;;;13.70;1.00;;;;;;5031523;28;20415;-72
2023/03/13 07:13:38;;;;;;;0.68;0.50;;;13.80;1.00;;;;;;5026100;28;20397;-71
2023/03/13 07:16:10;;;;;;;1.30;0.40;;;13.80;1.00;;;;;;5012613;28;20740;-71
2023/03/13 07:18:37;;;;;;;1.00;0.50;;;13.80;1.00;;;;;;5012588;28;20878;-71
2023/03/13 07:21:06;;;;;;;0.60;0.53;;;13.80;1.00;;;;;;5012801;28;20385;-72
2023/03/13 07:23:33;;;;;;;1.17;0.40;;;13.80;1.00;;;;;;5012470;28;20407;-72
2023/03/13 07:26:01;;;;;;;1.30;0.70;;;13.90;1.00;;;;;;5012307;28;20956;-71
2023/03/13 07:28:29;;;;;;;1.17;0.50;;;13.90;1.00;;;;;;5027702;28;20402;-72
2023/03/13 07:31:02;;;;;;;0.47;0.40;;;13.90;1.00;;;;;;5021295;28;20416;-72
2023/03/13 07:33:27;;;;;;;1.20;0.40;;;14.00;1.00;;;;;;5012339;28;20399;-71
2023/03/13 07:35:53;;;;;;;1.40;1.00;;;14.10;1.00;;;;;;5011999;28;20758;-71
2023/03/13 07:38:19;;;;;;;1.40;0.40;;;14.10;1.00;;;;;;5012058;28;20388;-72
2023/03/13 07:40:52;;;;;;;0.60;0.40;;;14.20;1.00;;;;;;5012400;28;20459;-71
2023/03/13 07:43:19;;;;;;;0.90;0.60;;;14.20;1.00;;;;;;5012418;28;20393;-71
2023/03/13 07:45:51;;;;;;;1.40;0.50;;;14.30;1.00;;;;;;5012367;28;20487;-71
2023/03/13 07:48:17;;;;;;;1.00;0.50;;;14.40;99.90;;;;;;5043568;28;20397;-71
2023/03/13 07:50:42;;;;;;;1.20;0.60;;;14.40;99.90;;;;;;5012105;28;20385;-72
2023/03/13 07:53:08;;;;;;;0.90;0.50;;;14.50;99.90;;;;;;5011987;28;20389;-72
2023/03/13 07:55:33;;;;;;;2.10;0.60;;;14.50;99.90;;;;;;5011836;28;20397;-71
2023/03/13 07:57:59;;;;;;;1.10;0.50;;;14.60;99.90;;;;;;5012019;28;20405;-70
2023/03/13 08:00:24;;;;;;;1.10;0.52;;;14.60;99.90;;;;;;5012040;28;20393;-72
2023/03/13 08:02:50;;;;;;;1.20;0.80;;;14.70;99.90;;;;;;5012245;28;20435;-71
2023/03/13 08:05:15;;;;;;;2.20;0.90;;;14.80;99.90;;;;;;5029416;28;20414;-72
2023/03/13 08:07:43;;;;;;;1.50;1.40;;;14.80;99.90;;;;;;5029751;28;20409;-72
2023/03/13 08:10:09;;;;;;;1.60;1.20;;;15.00;1.00;;;;;;5030628;28;20419;-71
2023/03/13 08:12:35;;;;;;;0.98;0.60;;;15.10;1.00;;;;;;5031565;28;20383;-72
2023/03/13 08:15:00;;;;;;;1.42;0.80;;;15.10;99.90;;;;;;5028042;28;20391;-71
2023/03/13 08:17:28;;;;;;;1.10;0.80;;;15.00;1.00;;;;;;5011255;28;21126;-71
2023/03/13 08:19:54;;;;;;;0.70;0.50;;;15.20;1.00;;;;;;5011678;28;20392;-71
2023/03/13 08:22:19;;;;;;;0.80;0.57;;;15.30;1.00;;;;;;5011102;28;20381;-72
2023/03/13 08:24:45;;;;;;;1.70;0.80;;;15.30;99.90;;;;;;5011554;28;20380;-71
2023/03/13 08:27:10;;;;;;;0.70;0.70;;;15.30;99.90;;;;;;5011090;28;20463;-72
2023/03/13 08:29:36;;;;;;;1.20;0.70;;;15.30;1.00;;;;;;5021581;28;20457;-71
2023/03/13 08:32:01;;;;;;;1.05;0.70;;;15.30;99.90;;;;;;5031098;28;20474;-72
2023/03/13 08:34:27;;;;;;;0.97;0.50;;;15.20;1.30;;;;;;5016129;28;20487;-71
2023/03/13 08:36:52;;;;;;;0.70;0.50;;;15.30;99.90;;;;;;5011467;28;20385;-72
2023/03/13 08:39:19;;;;;;;1.40;0.70;;;15.30;99.90;;;;;;5011398;28;20385;-71
2023/03/13 08:41:45;;;;;;;0.70;0.50;;;15.30;99.90;;;;;;5011498;28;20432;-72
2023/03/13 08:44:13;;;;;;;2.40;0.90;;;15.50;60.20;;;;;;5011337;28;20439;-71
2023/03/13 08:46:39;;;;;;;1.10;0.40;;;15.70;1.00;;;;;;5013377;28;20467;-71
2023/03/13 08:49:06;;;;;;;1.80;0.60;;;15.80;99.90;;;;;;5012382;28;20755;-71
2023/03/13 08:51:32;;;;;;;1.40;0.50;;;15.90;99.90;;;;;;5011088;28;20392;-72
2023/03/13 08:53:57;;;;;;;1.30;0.60;;;15.90;1.00;;;;;;5011029;28;20791;-72
2023/03/13 08:56:25;;;;;;;0.50;0.40;;;15.90;1.00;;;;;;5010728;28;20446;-72
2023/03/13 08:58:59;;;;;;;1.45;0.60;;;15.90;1.00;;;;;;5010918;28;20756;-72
2023/03/13 09:01:27;;;;;;;0.70;0.70;;;15.90;1.00;;;;;;5011659;28;20430;-72
2023/03/13 09:03:52;;;;;;;0.50;0.50;;;16.00;1.00;;;;;;5010773;28;20404;-72
2023/03/13 09:06:18;;;;;;;1.53;0.70;;;16.20;1.00;;;;;;5010564;28;20490;-72
2023/03/13 09:08:44;;;;;;;1.10;0.50;;;16.20;1.00;;;;;;5010504;28;20393;-72
2023/03/13 09:11:12;;;;;;;0.90;0.60;;;16.10;1.00;;;;;;5010921;28;20493;-71
2023/03/13 09:13:41;;;;;;;1.30;0.90;;;16.00;99.90;;;;;;5029206;28;20413;-72
2023/03/13 09:16:09;;;;;;;1.17;0.70;;;15.90;1.00;;;;;;5030268;28;20401;-71
2023/03/13 09:18:35;;;;;;;1.30;0.80;;;15.90;99.90;;;;;;5030368;28;20391;-72
2023/03/13 09:21:02;;;;;;;1.00;0.60;;;15.80;99.90;;;;;;5030477;28;20430;-72
2023/03/13 09:23:28;;;;;;;1.40;1.00;;;15.90;99.90;;;;;;5019388;28;20405;-71
2023/03/13 09:25:55;;;;;;;0.60;0.50;;;16.00;98.60;;;;;;5013986;28;20414;-72
2023/03/13 09:28:22;;;;;;;1.30;0.70;;;16.30;1.00;;;;;;5021501;28;20953;-71
2023/03/13 09:30:48;;;;;;;1.27;0.60;;;16.40;1.00;;;;;;5010741;28;20471;-70
2023/03/13 09:33:15;;;;;;;0.90;0.40;;;16.50;99.90;;;;;;5042330;28;20476;-70
2023/03/13 09:35:41;;;;;;;1.60;0.87;;;16.60;43.70;;;;;;5017598;28;20489;-71
2023/03/13 09:38:06;;;;;;;0.80;0.60;;;16.50;99.90;;;;;;5034563;28;20390;-72
2023/03/13 09:40:40;;;;;;;0.90;0.70;;;16.40;1.00;;;;;;5034576;28;20437;-70
2023/03/13 09:43:34;;;;;;;1.93;0.60;;;16.60;99.90;;;;;;5034318;28;20394;-72
2023/03/13 09:46:04;;;;;;;1.10;0.60;;;16.80;1.00;;;;;;5033879;28;20498;-71
2023/03/13 09:48:47;;;;;;;1.00;0.60;;;17.10;1.00;;;;;;5030780;28;20405;-71
2023/03/13 09:51:36;;;;;;;1.00;0.80;;;17.20;99.90;;;;;;5014243;28;20933;-71
2023/03/13 09:54:33;;;;;;;1.02;0.75;;;17.50;1.00;;;;;;5014297;28;20855;-72
2023/03/13 09:57:14;;;;;;;0.70;0.70;;;17.70;1.00;;;;;;5009671;28;20400;-72
2023/03/13 09:59:45;;;;;;;2.05;1.27;;;17.90;99.90;;;;;;5014114;28;20475;-71
2023/03/13 10:02:35;;;;;;;1.80;0.70;;;18.00;99.90;;;;;;5048956;28;20480;-71
2023/03/13 10:05:19;;;;;;;1.30;0.65;;;17.80;99.90;;;;;;5028525;28;20399;-71
2023/03/13 10:07:45;;;;;;;1.30;0.57;;;17.80;99.90;;;;;;5023455;28;20977;-71
2023/03/13 10:10:14;;;;;;;1.20;0.60;;;17.80;99.90;;;;;;5013988;28;20432;-71
2023/03/13 10:12:44;;;;;;;1.00;0.80;;;17.90;99.90;;;;;;5014215;28;20767;-72
2023/03/13 10:15:33;;;;;;;1.30;0.50;;;18.00;99.90;;;;;;5013913;28;20381;-72
2023/03/13 10:18:15;;;;;;;0.60;0.50;;;18.00;99.90;;;;;;5013831;28;20407;-71
2023/03/13 10:20:42;;;;;;;1.00;0.60;;;18.10;99.90;;;;;;5017192;28;20387;-72
2023/03/13 10:23:31;;;;;;;1.80;0.50;;;18.10;99.90;;;;;;5013923;28;20401;-72
2023/03/13 10:25:57;;;;;;;1.92;0.60;;;18.40;99.90;;;;;;5013250;28;20416;-71
2023/03/13 10:28:23;;;;;;;0.50;0.50;;;18.60;99.90;;;;;;5013588;28;20392;-71
2023/03/13 10:31:00;;;;;;;0.85;0.50;;;18.40;60.30;;;;;;5013416;28;20384;-71
2023/03/13 10:33:27;;;;;;;3.20;0.80;;;18.40;11.60;;;;;;5014207;28;20377;-71
2023/03/13 10:36:03;;;;;;;0.70;0.50;;;18.70;23.70;;;;;;5017393;28;20492;-71
2023/03/13 10:38:33;;;;;;;0.70;0.60;;;19.10;1.00;;;;;;5013804;28;20397;-72
2023/03/13 10:41:05;;;;;;;0.60;0.50;;;19.20;1.00;;;;;;5013818;28;20393;-71
2023/03/13 10:43:31;;;;;;;1.80;0.90;;;19.00;1.00;;;;;;5013933;28;20456;-72
2023/03/13 10:45:57;;;;;;;1.33;0.80;;;19.10;1.00;;;;;;5013158;28;20408;-71
2023/03/13 10:48:28;;;;;;;0.60;0.50;;;18.90;1.00;;;;;;5013584;28;20380;-71
2023/03/13 10:50:56;;;;;;;1.20;0.65;;;19.00;1.00;;;;;;5005866;28;20438;-71
2023/03/13 10:53:24;;;;;;;1.85;0.40;;;19.10;1.00;;;;;;5033029;28;20912;-71
2023/03/13 10:55:56;;;;;;;1.10;0.70;;;19.20;1.00;;;;;;5032577;28;20387;-72
2023/03/13 10:58:41;;;;;;;0.70;0.50;;;19.10;1.00;;;;;;5015747;28;20388;-71
2023/03/13 11:01:22;;;;;;;1.00;0.50;;;19.50;1.00;;;;;;5012997;28;20451;-73
2023/03/13 11:03:49;;;;;;;0.60;0.50;;;19.50;1.00;;;;;;5013146;28;20393;-71
2023/03/13 11:06:24;;;;;;;0.60;0.50;;;19.60;1.00;;;;;;4992876;28;20780;-71
2023/03/13 11:08:58;;;;;;;1.00;0.60;;;19.60;99.90;;;;;;5042205;28;20500;-71
2023/03/13 11:11:29;;;;;;;0.80;0.70;;;19.60;99.90;;;;;;5012908;28;20389;-71
2023/03/13 11:14:05;;;;;;;1.30;0.60;;;19.50;99.90;;;;;;5012744;28;20794;-72
2023/03/13 11:16:31;;;;;;;0.55;0.40;;;19.50;99.90;;;;;;5012352;28;20393;-71
2023/03/13 11:19:15;;;;;;;0.60;0.50;;;19.70;99.90;;;;;;5012506;28;20404;-72
2023/03/13 11:21:46;;;;;;;1.67;0.60;;;19.90;99.90;;;;;;4993106;28;20903;-71
2023/03/13 11:24:45;;;;;;;0.70;0.50;;;20.00;99.90;;;;;;4993095;28;20465;-71
2023/03/13 11:27:37;;;;;;;0.90;0.40;;;20.20;99.90;;;;;;4992505;28;20488;-71
2023/03/13 11:30:16;;;;;;;0.50;0.38;;;20.30;99.90;;;;;;4992898;28;20397;-71
2023/03/13 11:32:43;;;;;;;2.30;0.50;;;20.40;99.90;;;;;;5024541;28;20390;-73
2023/03/13 11:35:28;;;;;;;1.65;0.45;;;20.20;99.90;;;;;;5031943;28;20391;-71
2023/03/13 11:37:56;;;;;;;1.20;0.40;;;20.60;99.90;;;;;;5026706;28;20384;-72
2023/03/13 11:40:35;;;;;;;0.90;0.60;;;21.30;99.90;;;;;;5044464;28;20471;-72
2023/03/13 11:43:01;;;;;;;0.80;0.60;;;21.60;99.90;;;;;;5012180;28;20383;-71
2023/03/13 11:45:54;;;;;;;0.60;0.40;;;21.60;99.90;;;;;;5011886;28;20894;-72
2023/03/13 11:48:35;;;;;;;0.77;0.50;;;21.50;99.90;;;;;;5012040;28;20388;-73
2023/03/13 11:51:38;;;;;;;1.40;0.40;;;21.70;99.90;;;;;;5043254;28;20768;-71
2023/03/13 11:54:35;;;;;;;1.00;0.50;;;22.00;99.90;;;;;;4989868;28;20398;-72
2023/03/13 11:57:29;;;;;;;0.55;0.35;;;22.00;99.90;;;;;;5010857;28;20391;-72
2023/03/13 12:00:21;;;;;;;1.50;0.60;;;22.40;99.90;;;;;;5012447;28;20381;-72
2023/03/13 12:03:04;;;;;;;1.00;0.60;;;23.00;99.90;;;;;;5011927;28;20871;-72
2023/03/13 12:06:01;;;;;;;0.70;0.50;;;22.80;99.90;;;;;;4991669;28;20509;-73
2023/03/13 12:08:42;;;;;;;1.80;0.50;;;22.90;99.90;;;;;;4991033;28;20461;-72
2023/03/13 12:11:34;;;;;;;0.60;0.40;;;23.10;99.90;;;;;;4992078;28;20379;-72
2023/03/13 12:14:09;;;;;;;1.20;0.40;;;23.20;99.90;;;;;;4992219;28;20378;-73
2023/03/13 12:16:46;;;;;;;0.90;0.50;;;22.40;99.90;;;;;;4994229;28;20424;-73
2023/03/13 12:19:16;;;;;;;0.90;0.50;;;22.20;99.90;;;;;;5028822;28;20874;-72
2023/03/13 12:21:51;;;;;;;1.38;0.50;;;22.10;99.90;;;;;;5011719;28;20432;-72
2023/03/13 12:24:34;;;;;;;0.73;0.47;;;22.30;99.90;;;;;;5011547;28;20389;-73
2023/03/13 12:27:09;;;;;;;1.00;0.50;;;22.50;99.90;;;;;;5010984;28;20419;-73
2023/03/13 12:30:11;;;;;;;1.35;0.50;;;22.80;99.90;;;;;;5011327;28;20381;-73
2023/03/13 12:32:43;;;;;;;1.10;0.57;;;23.00;99.90;;;;;;5011426;28;20439;-73
2023/03/13 12:35:11;;;;;;;1.70;0.50;;;22.90;99.90;;;;;;4990651;28;20434;-72
2023/03/13 12:37:47;;;;;;;1.00;0.60;;;23.10;99.90;;;;;;4991476;28;20762;-73
2023/03/13 12:40:31;;;;;;;1.00;0.70;;;23.00;99.90;;;;;;5013021;28;20395;-70
2023/03/13 12:43:11;;;;;;;0.90;0.52;;;23.60;99.90;;;;;;5030924;28;20441;-70
2023/03/13 12:45:50;;;;;;;2.10;0.70;;;23.00;99.90;;;;;;5030438;28;20411;-70
2023/03/13 12:48:25;;;;;;;1.13;0.60;;;23.60;99.90;;;;;;5030753;28;20386;-72
2023/03/13 12:51:09;;;;;;;1.40;0.50;;;23.70;99.90;;;;;;5031012;28;20403;-72
2023/03/13 12:53:58;;;;;;;1.42;0.82;;;24.60;99.90;;;;;;5022167;28;20415;-72
2023/03/13 12:56:39;;;;;;;2.00;0.70;;;24.10;99.90;;;;;;5024365;28;20406;-72
2023/03/13 12:59:13;;;;;;;0.90;0.50;;;24.10;99.90;;;;;;5011910;28;20881;-72
2023/03/13 13:01:51;;;;;;;0.93;0.90;;;23.90;99.90;;;;;;5011229;28;20393;-72
2023/03/13 13:04:46;;;;;;;1.20;0.60;;;23.60;99.90;;;;;;5011053;28;20728;-72